Colorado AWOS List, Phone Numbers, Maps

USA |  
| Search AWOS

Rocky Mountain States: Montana | Wyoming | Colorado | New Mexico

Complete weather reports: Colorado

Legend: KFNL = METAR available Follow your local AWOS on AV Mobile = METAR available on AV Mobile
Station Colorado Location Frequency Phone
KAKOFAA ID AKO, ASOS, KAKO 271753Z AUTO 28007KT 10SM CLR 16/M03 A3013 RMK AO2 SLP179 T01611028 10167 20044 50001 Follow KAKO on AV Mobile COLORADO PLAINS REGIONAL 135.475 970-345-2320
KALSFAA ID ALS, ASOS, KALS 271752Z AUTO 00000KT 10SM CLR 03/M06 A3040 Follow KALS on AV Mobile SAN LUIS VALLEY REGIONAL 135.175 719-589-5669
KASEFAA ID ASE, ASOS, KASE 271753Z 00000KT 10SM CLR 03/M06 A3035 Follow KASE on AV Mobile ASPEN-PITKIN COUNTY AIRPORT 120.400 970-925-9168
KBKFFAA ID BKF, KBKF 271758Z 21012KT 10SM BKN220 19/M05 A3015 Follow KBKF on AV Mobile Aurora, Buckley Air Force Base Airport
K7BMFAA ID 7BM, AWOS-3, K7BM 271835Z AUTO 13004KT 10SM CLR 10/M12 A3038 RMK AO2 Follow K7BM on AV Mobile Cottonwood Pass 132.050 303-512-4919
KBDUFAA ID BDU, AWOS-3, KBDU 271836Z AUTO 00000KT 10SM CLR 18/M05 A3011 RMK AO2 Follow KBDU on AV Mobile Boulder Municipal Airport 118.825 303-541-9540
KAEJFAA ID AEJ, AWOS-3, KAEJ 271835Z AUTO 00000KT 10SM CLR 09/M08 A3032 RMK AO2 T00891081 Follow KAEJ on AV Mobile Central Colorado Regional Airport 132.925 719-395-2599
KITRFAA ID ITR, ASOS, KITR 271753Z AUTO 22011KT 10SM CLR 21/M02 A3013 RMK AO2 SLP177 T02111017 10211 20039 58002 Follow KITR on AV Mobile Kit Carson County Airport 135.225 719-346-7036
K1V6FAA ID 1V6, AWOS-3, K1V6 271835Z AUTO 29015G18KT 10SM CLR 19/M03 A3016 RMK AO2 Follow K1V6 on AV Mobile CANON CITY 120.025
KAFFFAA ID AFF, KAFF 271758Z AUTO 18003KT 10SM CLR 17/M06 A3022 RMK AO2 SLP201 T01661059 10169 21001 57006 Follow KAFF on AV Mobile Air Force Academy
KCOSFAA ID COS, ASOS, KCOS 271754Z 12003KT 10SM BKN250 18/M11 A3022 Follow KCOS on AV Mobile COLORADO SPRINGS MUNI 125.000 719-637-9696
KFLYFAA ID FLY, AWOS-3PT, KFLY 271833Z AUTO 20004KT 10SM CLR 18/M11 A3024 RMK AO2 T01791106 Follow KFLY on AV Mobile Meadowlake Airport, Peyton, CO 118.450 719-683-5371
KCCUFAA ID CCU, AWOS-3, KCCU 271835Z AUTO 23006KT 10SM CLR 05/M16 A3048 RMK AO2 Follow KCCU on AV Mobile Copper Mountain, Red Cliff Pass 118.075 970-968-1715
KCEZFAA ID CEZ, ASOS, KCEZ 271753Z AUTO 24007KT 180V250 10SM OVC060 09/M02 A3037 RMK AO2 SLP270 T00891022 10089 21056 53003 Follow KCEZ on AV Mobile CORTEZ MONTEZUMA COUNTY AIRPORT 135.625 970-564-0193
KCAGFAA ID CAG, ASOS, KCAG 271753Z AUTO 23004KT 10SM M02/M06 A3031 Follow KCAG on AV Mobile CRAIG MOFFAT AIRPORT 135.425 970-824-2373
KAJZFAA ID AJZ, AWOS-3, KAJZ 271815Z AUTO 00000KT 10SM CLR 09/M02 A3032 RMK AO2 T00901019 Follow KAJZ on AV Mobile Blake Field Airport 134.000 970-874-3251
KDNRICAO ID KDNR Denver / Stapleton International, Co.
KAPAFAA ID APA, ASOS, KAPA 271753Z 20007KT 10SM FEW220 BKN250 18/M07 A3017 RMK AO2 SLP183 T01831072 10189 20044 58006 Follow KAPA on AV Mobile DENVER CENTENNIAL AIRPORT 120.300 303-706-9098
KDENFAA ID DEN, ASOS, KDEN 271753Z 23013KT 10SM BKN250 20/M07 A3014 Follow KDEN on AV Mobile DENVER INTERNATIONAL AIRPORT 125.600 303-342-0838
KFTGFAA ID FTG, AWOS-3, KFTG 271650Z 22008KT 50SM FEW200 17/M03 A3016 Follow KFTG on AV Mobile Front Range Airport 119.025 303-261-9104
KBJCFAA ID BJC, AWOS-3, KBJC 271757Z 12003KT 50SM SCT170 18/M07 A3015 Follow KBJC on AV Mobile Rocky Mountain Metro Airport 126.250 720-887-8067
K4V5ICAO ID K4V5 Durango Aviation Weather Reporting Station
KDROFAA ID DRO, ASOS, KDRO 271753Z AUTO 08006KT 10SM CLR 06/M04 A3038 RMK AO2 SLP288 T00611039 10061 21033 50001 Follow KDRO on AV Mobile DURANGO-LA PLATA COUNTY AIRPORT 120.625 970-259-3579
KEGEFAA ID EGE, AWOS-3, KEGE 271750Z 00000KT 10SM FEW100 03/01 A3043 Follow KEGE on AV Mobile Eagle County Regional 135.575 970-524-7386
CO90FAA ID CO90, ASOS, K2V5 271900Z AUTO 25006KT 10SM CLR 24/M03 A3006 RMK AO2 T02361027 Follow  on AV Mobile USAF Academy Bullseye Aux Airstrip 118.325 719-683-3346
K0COFAA ID 0CO, AWOS-3, K0CO 271835Z AUTO 31009G17KT 280V350 10SM CLR 00/M02 A3050 RMK AO2 Follow K0CO on AV Mobile EMPIRE 134.325
KEIKFAA ID EIK, AWOS-3, KEIK 271835Z AUTO 00000KT 10SM CLR 18/M08 A3011 RMK AO2 T01771085 Follow KEIK on AV Mobile Erie Municipal Airport 133.825 303-604-4339
KFCSFAA ID FCS, KFCS 271758Z AUTO 21001KT 10SM CLR 17/M05 A3019 RMK AO2 SLP212 T01681048 10168 20028 56004 $ Follow KFCS on AV Mobile Fort Carson
KFCLICAO ID KFCL Fort Collins Supplementary Aviation Weather Reporting Station
KFNLFAA ID FNL, AWOS-3, KFNL 271835Z AUTO 00000KT 10SM CLR 16/M02 A3013 RMK AO1 Follow KFNL on AV Mobile Fort Collins/Loveland, Fort Collins-Loveland Municipal Airport 135.075 970-669-9187
KFMMFAA ID FMM, AWOS-3, KFMM 271835Z AUTO 27003KT 10SM CLR 15/M03 A3011 RMK AO2 T01451030 Follow KFMM on AV Mobile Fort Morgan Municipal Airport 132.950 970-867-4823
KGNBFAA ID GNB, AWOS-1 Granby-Grand County Airport 119.925 970-887-1803
KGJTFAA ID GJT, ASOS, KGJT 271753Z 30007KT 10SM OVC100 06/M03 A3032 Follow KGJT on AV Mobile GRAND JUNCTION WALKER FIELD 118.550 970-245-7881
KGXYFAA ID GXY, AWOS-3, KGXY 271835Z AUTO 28003KT 10SM CLR 13/M01 A3010 RMK AO1 Follow KGXY on AV Mobile Greeley, Greeley-Weld County Airport 135.175 970-352-3511
K2V9ICAO ID K2V9 Gunnison Aviation Weather Reporting Station
KGUCFAA ID GUC, AWOS-3, KGUC 271835Z 14003KT 10SM CLR M11/M14 A3046 RMK AO1 Follow KGUC on AV Mobile Gunnison, Gunnison-Crested Butte Regional Airport 135.075 970-641-3240
KHDNFAA ID HDN, AWOS-3, KHDN 271835Z 14006KT 10SM CLR 03/M06 A3029 RMK AO1 Follow KHDN on AV Mobile Hayden, Yampa Valley Airport 119.275 970-276-3690
KHEQFAA ID HEQ, AWOS-3, KHEQ 271835Z AUTO 28009KT 10SM CLR 23/M03 A3006 RMK AO2 Follow KHEQ on AV Mobile Holyoke Airport 119.275 970-854-3679
K20VFAA ID 20V, AWOS-3, K20V 271835Z AUTO 00000KT 5SM HZ OVC003 A3042 RMK AO2 Follow K20V on AV Mobile Kremmling, Mc Elroy Airfield 118.425 970-724-9659
KLHXFAA ID LHX, ASOS, KLHX 271753Z AUTO 27006KT 10SM CLR 16/M02 A3017 RMK AO2 SLP189 T01561022 10156 20006 58007 Follow KLHX on AV Mobile LA JUNTA MUNICIPAL AIRPORT 135.525 719-384-5961
KVTPFAA ID VTP, AWOS-3, KVTP 231934Z AUTO 00000KT 10SM CLR M02/M09 A3020 RMK AO2 P0003 Follow KVTP on AV Mobile La Veta Mountain, La Veta Pass 119.925 719-587-3120
KLAAFAA ID LAA, ASOS, KLAA 271753Z AUTO 30006KT 10SM CLR 14/01 A3015 RMK AO2 SLP192 T01390006 10139 21011 58006 Follow KLAA on AV Mobile LAMAR MUNICIPAL AIRPORT 135.625 719-336-3854
KLXVFAA ID LXV, ASOS, KLXV 271753Z AUTO 00000KT 10SM CLR 07/M12 A3039 Follow KLXV on AV Mobile LEADVILLE LAKE CO 118.375 719-486-2735
KLICFAA ID LIC, ASOS, KLIC 271755Z AUTO 22012G21KT 10SM CLR 21/M09 A3017 RMK AO2 SLP186 T02111094 10211 21017 58005 Follow KLIC on AV Mobile LIMON MUNICIPAL AIRPORT 121.125 719-775-0515
KLMOFAA ID LMO, AWOS-3, KLMO 271835Z AUTO 08003KT 10SM CLR 19/M04 A3012 RMK AO2 T01901040 Follow KLMO on AV Mobile Vance Brand Airport 120.000 303-684-7545
KEEOFAA ID EEO, ASOS, KEEO 271753Z AUTO 00000KT 10SM CLR M01/M06 A3031 RMK AO2 SLP289 T10061061 11006 21106 58005 Follow KEEO on AV Mobile MEEKER AIRPORT 135.525 970-878-5036
KMYPFAA ID MYP, AWOS-3, KMYP 271834Z AUTO 25019G25KT 10SM CLR 02/M12 A3057 RMK AO2 Follow KMYP on AV Mobile Salida Mountain, Monarch Pass 124.175 719-539-4436
KMTJFAA ID MTJ, ASOS, KMTJ 271753Z AUTO 32004KT 10SM CLR 09/M03 A3033 RMK AO2 SLP254 T00941033 10094 21028 58006 Follow KMTJ on AV Mobile MONTROSE REGIONAL AIRPORT 135.225 970-249-1534
KMNHFAA ID MNH, AWOS-3, KMNH 271836Z AUTO 22008KT 10SM CLR 16/M07 A3022 RMK AO2 Follow KMNH on AV Mobile Elbert Mountain, Monument Pass 134.375 303-648-3479
K3MWFAA ID 3MW, AWOS-3, K3MW 211630Z AUTO RMK AO2 TSNO PWINO Follow K3MW on AV Mobile Mount Werner 127.125 970-871-5640
KCRVICAO ID KCRV Nederland Mountain, Corona Pass
KAIBFAA ID AIB, AWOS-3, KAIB 271835Z AUTO 34004KT 10SM CLR 10/M03 A3037 RMK AO2 Follow KAIB on AV Mobile Hopkins Field Airport 132.525 970-864-2325
KPSOFAA ID PSO, AWOS-3, KPSO 271835Z AUTO 00000KT 10SM CLR 10/M07 A3039 RMK AO2 T01021067 Follow KPSO on AV Mobile Stevens Field Airport 127.175 970-731-0365
KPEFICAO ID KPEF Peterson Air Force Base
KPUXICAO ID KPUX Pueblo NEXRAD
KPUBFAA ID PUB, ASOS, KPUB 271753Z 26004KT 10SM CLR 15/M03 A3017 Follow KPUB on AV Mobile PUEBLO MEMORIAL AIRPORT 125.250 719-948-2803
K1V1ICAO ID K1V1 Rifle Aviation Weather Reporting Station
KRILFAA ID RIL, ASOS, KRIL 271753Z AUTO 00000KT 10SM CLR 04/M04 A3033 RMK AO2 SLP278 T00391044 10039 21044 58007 Follow KRIL on AV Mobile RIFLE GARFIELD COUNTY RGNL 135.275 970-625-2206
K04VFAA ID 04V, AWOS-3, K04V 271828Z AUTO 09003KT 10SM CLR 01/M05 A3041 RMK AO2 Follow K04V on AV Mobile Saguache, Saguache Municipal Airport 118.625 719-655-2229
KS29ICAO ID KS29 Salida
KANKFAA ID ANK, AWOS-3, KANK 271835Z AUTO 35007KT 10SM CLR 11/M07 A3037 RMK AO1 T01121072 Follow KANK on AV Mobile Harriet Alexander Field Airport 133.850 719-539-5268
KSPDICAO ID KSPD, KSPD 271756Z AUTO 24010KT 21/M05 A3017 RMK AO1 SLP183 T02111050 10217 20022 58006 Follow KSPD on AV Mobile SPRINGFIELD COMANCHE NATL
KSBSFAA ID SBS, AWOS-3, KSBS 271835Z AUTO 00000KT 10SM CLR 00/M06 A3031 RMK AO1 T10031065 Follow KSBS on AV Mobile Steamboat Springs 118.325 970-879-7794
KSTKFAA ID STK, AWOS-3, KSTK 271830Z AUTO 19007KT 10SM CLR 15/03 A3008 RMK AO2 Follow KSTK on AV Mobile Sterling Municipal Airport 118.525 970-526-3009
K5SMFAA ID 5SM, AWOS-3, K5SM 271835Z AUTO 00000KT 10SM CLR 07/M07 A3045 RMK AO2 Follow K5SM on AV Mobile Sunlight 126.075 970-384-3380
KTEXFAA ID TEX, AWOS-3, KTEX 271835Z AUTO 10008KT 10SM CLR 09/M11 A3039 RMK AO2 T00941107 Follow KTEX on AV Mobile Telluride, Telluride Regional Airport 118.325 970-728-1534
KTADFAA ID TAD, ASOS, KTAD 271754Z AUTO 00000KT 10SM CLR 17/M04 A3022 RMK AO2 SLP192 T01721044 10172 20011 58007 Follow KTAD on AV Mobile Trinidad, Perry Stokes Airport 119.025 719-845-1156
K33VFAA ID 33V, AWOS-3, K33V 271836Z AUTO 00000KT 10SM CLR 01/M06 A3032 RMK AO2 Follow K33V on AV Mobile WALDEN 118.625 970-723-4513
4V1FAA ID 4V1, AWOS-3, K2V5 271900Z AUTO 25006KT 10SM CLR 24/M03 A3006 RMK AO2 T02361027 Follow  on AV Mobile Spanish Peaks Airfield 123.600 719-738-1053
K4BMFAA ID 4BM, AWOS-3, K4BM 271836Z AUTO 24006KT 10SM CLR 05/M12 A3046 RMK AO2 Follow K4BM on AV Mobile Wilkerson Pass 132.3 303-512-4418
KC96ICAO ID KC96 Winter Park Resort
KCPWFAA ID CPW, AWOS-3, KCPW 220504Z AUTO RMK AO2 TSNO PWINO Follow KCPW on AV Mobile Pagosa Springs, Wolf Creek Pass 121.125 970-264-2180
K2V5FAA ID 2V5, AWOS-3, K2V5 271835Z AUTO 26007KT 10SM CLR 23/M02 A3008 RMK AO2 T02251025 Follow K2V5 on AV Mobile Wray Municipal Airport 118.250 970-332-5930

Click on the AV Mobile icon AV Mobile icon by any station to follow that AWOS feed on AirportView.net Mobile.

Legend: Commercial service airport with AWOS Commercial Airport AWOSNon-Commercial service airport with AWOS Non-Commercial Airport AWOS
Airport AWOS - Click symbol for weather report Fort Morgan Municipal Airport KFMM 271835Z AUTO 27003KT 10SM CLR 15/M03 A3011 RMK AO2 T01451030 Hopkins Field Airport KAIB 271835Z AUTO 34004KT 10SM CLR 10/M03 A3037 RMK AO2 Telluride, Telluride Regional Airport KTEX 271835Z AUTO 10008KT 10SM CLR 09/M11 A3039 RMK AO2 T00941107 Greeley, Greeley-Weld County Airport KGXY 271835Z AUTO 28003KT 10SM CLR 13/M01 A3010 RMK AO1 Front Range Airport KFTG 271650Z 22008KT 50SM FEW200 17/M03 A3016 Rocky Mountain Metro Airport KBJC 271757Z 12003KT 50SM SCT170 18/M07 A3015 DENVER CENTENNIAL AIRPORT KAPA 271753Z 20007KT 10SM FEW220 BKN250 18/M07 A3017 RMK AO2 SLP183 T01831072 10189 20044 58006 DENVER INTERNATIONAL AIRPORT KDEN 271753Z 23013KT 10SM BKN250 20/M07 A3014 Fort Collins/Loveland, Fort Collins-Loveland Municipal Airport KFNL 271835Z AUTO 00000KT 10SM CLR 16/M02 A3013 RMK AO1 Boulder Municipal Airport KBDU 271836Z AUTO 00000KT 10SM CLR 18/M05 A3011 RMK AO2 Vance Brand Airport KLMO 271835Z AUTO 08003KT 10SM CLR 19/M04 A3012 RMK AO2 T01901040 Sterling Municipal Airport KSTK 271830Z AUTO 19007KT 10SM CLR 15/03 A3008 RMK AO2 Holyoke Airport KHEQ 271835Z AUTO 28009KT 10SM CLR 23/M03 A3006 RMK AO2 COLORADO PLAINS REGIONAL KAKO 271753Z AUTO 28007KT 10SM CLR 16/M03 A3013 RMK AO2 SLP179 T01611028 10167 20044 50001 Kit Carson County Airport KITR 271753Z AUTO 22011KT 10SM CLR 21/M02 A3013 RMK AO2 SLP177 T02111017 10211 20039 58002 LIMON MUNICIPAL AIRPORT KLIC 271755Z AUTO 22012G21KT 10SM CLR 21/M09 A3017 RMK AO2 SLP186 T02111094 10211 21017 58005 COLORADO SPRINGS MUNI KCOS 271754Z 12003KT 10SM BKN250 18/M11 A3022 LAMAR MUNICIPAL AIRPORT KLAA 271753Z AUTO 30006KT 10SM CLR 14/01 A3015 RMK AO2 SLP192 T01390006 10139 21011 58006 LA JUNTA MUNICIPAL AIRPORT KLHX 271753Z AUTO 27006KT 10SM CLR 16/M02 A3017 RMK AO2 SLP189 T01561022 10156 20006 58007 Trinidad, Perry Stokes Airport KTAD 271754Z AUTO 00000KT 10SM CLR 17/M04 A3022 RMK AO2 SLP192 T01721044 10172 20011 58007 PUEBLO MEMORIAL AIRPORT KPUB 271753Z 26004KT 10SM CLR 15/M03 A3017 CANON CITY 1V6 SAN LUIS VALLEY REGIONAL KALS 271752Z AUTO 00000KT 10SM CLR 03/M06 A3040 Saguache, Saguache Municipal Airport K04V 271828Z AUTO 09003KT 10SM CLR 01/M05 A3041 RMK AO2 Granby-Grand County Airport KGNB WALDEN 33V Steamboat Springs KSBS 271835Z AUTO 00000KT 10SM CLR 00/M06 A3031 RMK AO1 T10031065 Hayden, Yampa Valley Airport KHDN 271835Z 14006KT 10SM CLR 03/M06 A3029 RMK AO1 Kremmling, Mc Elroy Airfield K20V 271835Z AUTO 00000KT 5SM HZ OVC003 A3042 RMK AO2 LEADVILLE LAKE CO KLXV 271753Z AUTO 00000KT 10SM CLR 07/M12 A3039 Eagle County Regional KEGE 271750Z 00000KT 10SM FEW100 03/01 A3043 CRAIG MOFFAT AIRPORT KCAG 271753Z AUTO 23004KT 10SM M02/M06 A3031 MEEKER AIRPORT KEEO 271753Z AUTO 00000KT 10SM CLR M01/M06 A3031 RMK AO2 SLP289 T10061061 11006 21106 58005 ASPEN-PITKIN COUNTY AIRPORT KASE 271753Z 00000KT 10SM CLR 03/M06 A3035 Gunnison, Gunnison-Crested Butte Regional Airport KGUC 271835Z 14003KT 10SM CLR M11/M14 A3046 RMK AO1 DURANGO-LA PLATA COUNTY AIRPORT  KDRO 271753Z AUTO 08006KT 10SM CLR 06/M04 A3038 RMK AO2 SLP288 T00611039 10061 21033 50001 Stevens Field Airport KPSO 271835Z AUTO 00000KT 10SM CLR 10/M07 A3039 RMK AO2 T01021067 CORTEZ MONTEZUMA COUNTY AIRPORT  KCEZ 271753Z AUTO 24007KT 180V250 10SM OVC060 09/M02 A3037 RMK AO2 SLP270 T00891022 10089 21056 53003 MONTROSE REGIONAL AIRPORT KMTJ 271753Z AUTO 32004KT 10SM CLR 09/M03 A3033 RMK AO2 SLP254 T00941033 10094 21028 58006 RIFLE GARFIELD COUNTY RGNL KRIL 271753Z AUTO 00000KT 10SM CLR 04/M04 A3033 RMK AO2 SLP278 T00391044 10039 21044 58007 GRAND JUNCTION WALKER FIELD KGJT 271753Z 30007KT 10SM OVC100 06/M03 A3032 Blake Field Airport KAJZ 271815Z AUTO 00000KT 10SM CLR 09/M02 A3032 RMK AO2 T00901019 Central Colorado Regional Airport KAEJ 271835Z AUTO 00000KT 10SM CLR 09/M08 A3032 RMK AO2 T00891081 Harriet Alexander Field Airport KANK 271835Z AUTO 35007KT 10SM CLR 11/M07 A3037 RMK AO1 T01121072 Erie Municipal Airport KEIK 271835Z AUTO 00000KT 10SM CLR 18/M08 A3011 RMK AO2 T01771085 Wray Municipal Airport K2V5 271835Z AUTO 26007KT 10SM CLR 23/M02 A3008 RMK AO2 T02251025
Legend: High Mountain AWOS Mountain Pass AWOS
Mountain Pass AWOS - Click symbol for weather report Pagosa Springs, Wolf Creek Pass KCPW 220504Z AUTO RMK AO2 TSNO PWINO Saguache, Saguache Municipal Airport K04V 271828Z AUTO 09003KT 10SM CLR 01/M05 A3041 RMK AO2 Kremmling, Mc Elroy Airfield K20V 271835Z AUTO 00000KT 5SM HZ OVC003 A3042 RMK AO2 La Veta Mountain, La Veta Pass KVTP 231934Z AUTO 00000KT 10SM CLR M02/M09 A3020 RMK AO2 P0003 Salida Mountain, Monarch Pass KMYP 271834Z AUTO 25019G25KT 10SM CLR 02/M12 A3057 RMK AO2 Cottonwood Pass K7BM 271835Z AUTO 13004KT 10SM CLR 10/M12 A3038 RMK AO2 Elbert Mountain, Monument Pass KMNH 271836Z AUTO 22008KT 10SM CLR 16/M07 A3022 RMK AO2 Wilkerson Pass K4BM 271836Z AUTO 24006KT 10SM CLR 05/M12 A3046 RMK AO2 Copper Mountain, Red Cliff Pass KCCU 271835Z AUTO 23006KT 10SM CLR 05/M16 A3048 RMK AO2 EMPIRE 0CO Sunlight K5SM 271835Z AUTO 00000KT 10SM CLR 07/M07 A3045 RMK AO2 Mount Werner K3MW 211630Z AUTO RMK AO2 TSNO PWINO
Garmin aera 796 $1999 at Avionics Specialists LLC
Bose A20 Aviation Headsets $995 at Avionics Specialists LLC